Data for 08/05/2009

Time Sea-Level Adjusted Pressure Absolute Pressure Temperature Relative Humidity Dew Point   
(mb) (inHg) (mb) (inHg) (C) (F) (%) (C) (F)
00:05 1022 30.18 851 25.13 19.8 67.6 50 9.1 48.3
00:10 1022 30.18 851 25.13 19.6 67.2 51 9.2 48.5
00:15 1022 30.18 851 25.13 19.3 66.7 51 9 48.3
00:20 1022 30.18 851 25.13 19.2 66.6 51 9 48.2
00:25 1022 30.18 851 25.13 19.2 66.5 51 9.1 48.3
00:30 1022 30.18 851 25.13 19 66.2 52 9.1 48.4
00:35 1022 30.18 851 25.13 18.8 65.8 53 9.2 48.5
00:40 1022 30.18 851 25.13 18.6 65.5 54 9.2 48.6
00:45 1022 30.18 851 25.13 18.4 65 55 9.3 48.7
00:50 1022 30.18 851 25.13 18.2 64.7 56 9.2 48.6
00:55 1022 30.18 852 25.16 18 64.4 56 9.2 48.5
01:00 1022 30.18 852 25.16 18 64.3 57 9.3 48.7
01:05 1022 30.18 852 25.16 17.8 64.1 57 9.3 48.7
01:10 1022 30.18 852 25.16 17.7 63.8 58 9.3 48.8
01:15 1022 30.18 852 25.16 17.5 63.5 59 9.4 48.9
01:20 1022 30.18 852 25.16 17.4 63.2 59 9.4 48.9
01:25 1022 30.18 852 25.16 17.2 63 59 9.4 48.8
01:30 1023 30.21 852 25.16 17.1 62.8 60 9.4 48.9
01:35 1023 30.21 852 25.16 17 62.5 61 9.4 48.9
01:40 1023 30.21 852 25.16 16.9 62.4 61 9.4 48.9
01:45 1023 30.21 852 25.16 16.9 62.3 61 9.4 48.9
01:50 1023 30.21 852 25.16 16.8 62.2 62 9.4 49
01:55 1023 30.21 852 25.16 16.7 62 62 9.4 48.9
02:00 1023 30.21 852 25.16 16.6 61.8 63 9.5 49.1
02:05 1023 30.21 852 25.16 16.5 61.6 63 9.4 49
02:10 1023 30.21 852 25.16 16.4 61.5 63 9.4 48.9
02:15 1023 30.21 852 25.16 16.3 61.3 64 9.5 49
02:20 1023 30.21 852 25.16 16.2 61.2 64 9.5 49.1
02:25 1023 30.21 852 25.16 16.2 61.1 64 9.5 49.1
02:30 1023 30.21 852 25.16 16.2 61.1 64 9.5 49
02:35 1023 30.21 852 25.16 16.1 61 64 9.4 48.9
02:40 1023 30.21 852 25.16 16.2 61.1 64 9.5 49.1
02:45 1023 30.21 852 25.16 16.1 61 65 9.5 49.1
02:50 1023 30.21 852 25.16 16 60.9 65 9.5 49.2
02:55 1023 30.21 852 25.16 16 60.8 65 9.5 49.1
03:00 1023 30.21 852 25.16 16 60.8 65 9.5 49.1
03:05 1023 30.21 852 25.16 16 60.8 65 9.6 49.2
03:10 1023 30.21 852 25.16 15.9 60.7 66 9.6 49.2
03:15 1023 30.21 852 25.16 16 60.7 66 9.6 49.3
03:20 1023 30.21 852 25.16 15.9 60.6 66 9.6 49.3
03:25 1023 30.21 852 25.16 15.8 60.4 66 9.6 49.2
03:30 1023 30.21 852 25.16 15.8 60.5 66 9.5 49.1
03:35 1023 30.21 852 25.16 15.8 60.5 66 9.6 49.3
03:40 1023 30.21 852 25.16 15.8 60.4 66 9.6 49.2
03:45 1023 30.21 852 25.16 15.8 60.4 66 9.5 49.2
03:50 1023 30.21 852 25.16 15.8 60.4 66 9.5 49.2
03:55 1023 30.21 852 25.16 15.7 60.3 67 9.6 49.3
04:00 1023 30.21 852 25.16 15.7 60.2 67 9.6 49.2
04:05 1023 30.21 852 25.16 15.6 60.1 67 9.6 49.4
04:10 1023 30.21 852 25.16 15.5 59.9 68 9.6 49.4
04:15 1023 30.21 852 25.16 15.4 59.7 68 9.6 49.3
04:20 1023 30.21 852 25.16 15.4 59.6 68 9.6 49.2
04:25 1023 30.21 852 25.16 15.2 59.4 69 9.6 49.4
04:30 1023 30.21 852 25.16 15.1 59.2 71 9.9 49.8
04:35 1023 30.21 853 25.19 14.9 58.8 73 10.1 50.2
04:40 1023 30.21 853 25.19 14.7 58.5 74 10.1 50.2
04:45 1024 30.24 853 25.19 14.7 58.5 74 10.2 50.3
04:50 1024 30.24 853 25.19 14.6 58.4 74 10.1 50.2
04:55 1024 30.24 853 25.19 14.8 58.7 72 9.9 49.9
05:00 1024 30.24 853 25.19 15 59.1 72 10.1 50.2
05:05 1024 30.24 853 25.19 14.9 58.7 73 10.1 50.1
05:10 1024 30.24 853 25.19 14.8 58.6 72 9.7 49.5
05:15 1024 30.24 853 25.19 14.8 58.6 72 9.8 49.6
05:20 1024 30.24 854 25.22 14.7 58.5 72 9.7 49.5
05:25 1024 30.24 854 25.22 14.7 58.5 71 9.6 49.2
05:30 1024 30.24 854 25.22 14.8 58.6 72 9.8 49.6
05:35 1025 30.27 854 25.22 14.8 58.7 72 9.9 49.8
05:40 1025 30.27 854 25.22 15 59 72 10 49.9
05:45 1025 30.27 854 25.22 15.1 59.1 72 10.2 50.3
05:50 1025 30.27 854 25.22 15 59 73 10.2 50.4
05:55 1025 30.27 854 25.22 14.9 58.9 73 10.2 50.4
06:00 1025 30.27 854 25.22 14.8 58.6 75 10.4 50.6
06:05 1025 30.27 854 25.22 14 57.1 78 10.2 50.3
06:10 1025 30.27 854 25.22 13.8 56.9 77 9.8 49.7
06:15 1025 30.27 854 25.22 14.2 57.5 76 10 49.9
06:20 1025 30.27 854 25.22 14.2 57.5 76 10.1 50.2
06:25 1025 30.27 854 25.22 14.1 57.3 77 10.2 50.3
06:30 1025 30.27 854 25.22 14 57.1 78 10.2 50.4
06:35 1025 30.27 854 25.22 13.8 56.9 79 10.3 50.6
06:40 1025 30.27 854 25.22 13.7 56.6 79 10.2 50.3
06:45 1025 30.27 854 25.22 13.7 56.6 80 10.3 50.6
06:50 1025 30.27 854 25.22 13.5 56.3 81 10.3 50.5
06:55 1025 30.27 854 25.22 13.2 55.7 82 10.2 50.4
07:00 1024 30.24 854 25.22 12.9 55.1 84 10.3 50.5
07:05 1024 30.24 853 25.19 12.6 54.6 85 10.1 50.3
07:10 1024 30.24 853 25.19 12.6 54.6 85 10.1 50.2
07:15 1024 30.24 853 25.19 12.7 54.9 84 10.1 50.2
07:20 1023 30.21 853 25.19 12.8 55 83 10 49.9
07:25 1023 30.21 853 25.19 13.1 55.6 79 9.6 49.3
07:30 1023 30.21 852 25.16 13.5 56.3 78 9.7 49.4
07:35 1023 30.21 853 25.19 13.8 56.8 76 9.7 49.5
07:40 1023 30.21 853 25.19 14.1 57.3 74 9.5 49.1
07:45 1023 30.21 853 25.19 14.5 58.2 72 9.6 49.2
07:50 1024 30.24 853 25.19 14.8 58.7 71 9.7 49.5
07:55 1024 30.24 853 25.19 15 59 70 9.6 49.3
08:00 1024 30.24 853 25.19 15.3 59.5 69 9.6 49.3
08:05 1024 30.24 853 25.19 15.5 59.9 68 9.7 49.5
08:10 1024 30.24 853 25.19 15.6 60.1 68 9.8 49.6
08:15 1024 30.24 853 25.19 15.9 60.7 66 9.8 49.6
08:20 1024 30.24 853 25.19 16 60.8 66 9.8 49.6
08:25 1024 30.24 853 25.19 16.2 61.2 66 9.9 49.8
08:30 1024 30.24 853 25.19 16.8 62.3 66 10.6 51
08:35 1024 30.24 853 25.19 16.7 62.1 64 10 50
08:40 1024 30.24 853 25.19 17 62.6 66 10.7 51.2
08:45 1024 30.24 853 25.19 17.1 62.9 64 10.4 50.6
08:50 1024 30.24 853 25.19 17.2 63 66 10.9 51.6
08:55 1024 30.24 853 25.19 17 62.7 63 10.1 50.1
09:00 1024 30.24 853 25.19 17.1 62.8 63 10 50.1
09:05 1024 30.24 853 25.19 17.2 63 61 9.7 49.5
09:10 1024 30.24 853 25.19 17.4 63.2 61 9.8 49.7
09:15 1024 30.24 853 25.19 17.4 63.3 60 9.6 49.3
09:20 1024 30.24 853 25.19 17.8 64 60 10 50
09:25 1024 30.24 853 25.19 17.7 63.8 60 10 50
09:30 1024 30.24 853 25.19 17.7 63.8 60 10 50
09:35 1023 30.21 853 25.19 17.8 64 59 9.8 49.7
09:40 1023 30.21 853 25.19 17.9 64.3 59 9.8 49.6
09:45 1023 30.21 853 25.19 18 64.4 60 10.1 50.2
09:50 1023 30.21 853 25.19 17.9 64.3 58 9.7 49.5
09:55 1023 30.21 853 25.19 18.3 65 57 9.8 49.7
10:00 1023 30.21 853 25.19 18.8 65.9 56 9.9 49.8
10:05 1023 30.21 853 25.19 18.9 65.9 57 10.3 50.5
10:10 1023 30.21 852 25.16 18.5 65.3 56 9.7 49.4
10:15 1023 30.21 852 25.16 18.9 66 56 9.9 49.9
10:20 1023 30.21 852 25.16 19.1 66.3 55 9.9 49.8
10:25 1023 30.21 852 25.16 19.3 66.7 54 10 49.9
10:30 1023 30.21 852 25.16 19.3 66.7 54 10 50
10:35 1023 30.21 852 25.16 19.4 66.9 54 10.1 50.1
10:40 1023 30.21 852 25.16 19.8 67.7 53 10.2 50.3
10:45 1023 30.21 852 25.16 20 68.1 51 9.8 49.7
10:50 1023 30.21 852 25.16 20.9 69.6 50 10.1 50.1
10:55 1023 30.21 852 25.16 20.7 69.3 50 10.2 50.3
11:00 1023 30.21 852 25.16 20.3 68.6 52 10.3 50.6
11:05 1023 30.21 852 25.16 19.9 67.9 53 10.2 50.3
11:10 1023 30.21 852 25.16 20 68 51 9.6 49.2
11:15 1023 30.21 852 25.16 20.6 69 49 9.8 49.6
11:20 1023 30.21 852 25.16 20.8 69.4 49 9.8 49.6
11:25 1023 30.21 852 25.16 20.8 69.5 50 10.1 50.1
11:30 1023 30.21 852 25.16 20.8 69.5 50 10.3 50.5
11:35 1023 30.21 852 25.16 21.3 70.4 49 10.4 50.7
11:40 1023 30.21 852 25.16 21.4 70.6 49 10.3 50.6
11:45 1023 30.21 852 25.16 22 71.6 47 10.3 50.6
11:50 1022 30.18 852 25.16 22.4 72.3 46 10.3 50.5
11:55 1022 30.18 851 25.13 22.1 71.8 47 10.5 50.9
12:00 1022 30.18 851 25.13 21.9 71.4 47 10.4 50.7
12:05 1022 30.18 851 25.13 22.2 71.9 46 10.1 50.2
12:10 1022 30.18 851 25.13 22.5 72.6 46 10.6 51
12:15 1022 30.18 851 25.13 22.6 72.7 45 10.2 50.4
12:20 1022 30.18 851 25.13 22.7 72.9 46 10.6 51
12:25 1022 30.18 851 25.13 22.6 72.8 44 10 49.9
12:30 1022 30.18 851 25.13 22.6 72.7 47 10.8 51.4
12:35 1022 30.18 851 25.13 21.9 71.5 47 10.2 50.3
12:40 1022 30.18 851 25.13 22.2 71.9 47 10.3 50.6
12:45 1022 30.18 851 25.13 22.2 71.9 47 10.4 50.8
12:50 1022 30.18 851 25.13 21.9 71.4 47 10.2 50.3
12:55 1022 30.18 851 25.13 21.8 71.3 47 10.2 50.3
13:00 1022 30.18 851 25.13 22.2 72 46 10.4 50.6
13:05 1022 30.18 851 25.13 22.5 72.4 46 10.4 50.8
13:10 1022 30.18 851 25.13 22.6 72.7 45 10.4 50.7
13:15 1022 30.18 851 25.13 22.6 72.6 45 10.2 50.4
13:20 1022 30.18 851 25.13 22.2 71.9 48 10.8 51.4
13:25 1022 30.18 852 25.16 22.4 72.4 49 11.4 52.5
13:30 1023 30.21 852 25.16 22.7 72.8 48 11.4 52.6
13:35 1023 30.21 852 25.16 22.7 72.9 48 11.5 52.6
13:40 1023 30.21 852 25.16 22.8 73.1 46 10.9 51.6
13:45 1023 30.21 852 25.16 23.1 73.6 46 11.2 52.1
13:50 1023 30.21 852 25.16 22.5 72.5 50 11.7 53.1
13:55 1022 30.18 852 25.16 22.1 71.7 48 10.8 51.4
14:00 1022 30.18 852 25.16 22.4 72.3 48 10.9 51.6
14:05 1022 30.18 852 25.16 22.4 72.2 49 11.3 52.3
14:10 1022 30.18 852 25.16 22.2 72 50 11.5 52.8
14:15 1022 30.18 852 25.16 22.4 72.4 49 11.3 52.4
14:20 1022 30.18 852 25.16 22.9 73.1 48 11.4 52.5
14:25 1022 30.18 851 25.13 22.9 73.3 48 11.6 52.8
14:30 1022 30.18 851 25.13 22.8 73.1 49 11.9 53.3
14:35 1022 30.18 851 25.13 22.8 73 49 11.7 53.1
14:40 1023 30.21 852 25.16 22.1 71.8 53 12.3 54.1
14:45 1023 30.21 852 25.16 21.6 70.9 55 12.2 54
14:50 1023 30.21 852 25.16 21.2 70.1 56 12.1 53.7
14:55 1023 30.21 853 25.19 20.8 69.5 56 11.9 53.3
15:00 1023 30.21 853 25.19 20.6 69.1 57 11.9 53.5
15:05 1024 30.24 853 25.19 20.6 69.1 57 11.8 53.2
15:10 1024 30.24 853 25.19 20.5 68.9 62 13.2 55.7
15:15 1024 30.24 853 25.19 20.1 68.2 66 13.6 56.5
15:20 1024 30.24 853 25.19 19.7 67.4 69 13.9 57
15:25 1023 30.21 852 25.16 19.1 66.4 74 14.4 57.9
15:30 1023 30.21 852 25.16 18.6 65.4 77 14.5 58.1
15:35 1023 30.21 852 25.16 18.1 64.5 80 14.6 58.3
15:40 1023 30.21 852 25.16 17.9 64.1 78 14 57.2
15:45 1023 30.21 852 25.16 17.9 64.2 76 13.7 56.7
15:50 1023 30.21 852 25.16 17.9 64.3 76 13.7 56.6
15:55 1023 30.21 852 25.16 17.9 64.1 75 13.5 56.3
16:00 1022 30.18 852 25.16 17.9 64.2 72 12.8 55
16:05 1022 30.18 851 25.13 18.1 64.6 71 12.8 55
16:10 1022 30.18 852 25.16 18.2 64.8 72 13.1 55.6
16:15 1022 30.18 852 25.16 18.1 64.6 72 13.1 55.5
16:20 1022 30.18 852 25.16 18.3 65 68 12.5 54.5
16:25 1022 30.18 851 25.13 18.8 65.8 64 11.9 53.5
16:30 1022 30.18 851 25.13 19.2 66.6 63 12.2 54
16:35 1022 30.18 851 25.13 19.5 67.2 63 12.5 54.5
16:40 1022 30.18 851 25.13 19.8 67.7 60 11.9 53.5
16:45 1022 30.18 851 25.13 20 68 60 12 53.6
16:50 1022 30.18 851 25.13 20 68 60 12.1 53.8
16:55 1022 30.18 851 25.13 19.8 67.7 58 11.4 52.6
17:00 1022 30.18 851 25.13 19.8 67.6 56 10.8 51.5
17:05 1022 30.18 851 25.13 19.8 67.7 56 11 51.7
17:10 1022 30.18 851 25.13 19.9 67.8 56 10.9 51.6
17:15 1022 30.18 851 25.13 20 68.1 53 10.2 50.4
17:20 1022 30.18 851 25.13 20 68 54 10.4 50.8
17:25 1022 30.18 851 25.13 20.2 68.3 52 10.2 50.4
17:30 1022 30.18 851 25.13 20.3 68.6 52 10.4 50.7
17:35 1022 30.18 851 25.13 20.5 68.9 51 10.3 50.5
17:40 1022 30.18 851 25.13 20.5 68.8 52 10.5 51
17:45 1022 30.18 851 25.13 20.7 69.2 53 10.8 51.4
17:50 1022 30.18 851 25.13 20.9 69.5 51 10.6 51
17:55 1022 30.18 851 25.13 21.1 69.9 51 10.8 51.4
18:00 1022 30.18 851 25.13 21.2 70.2 53 11.4 52.4
18:05 1022 30.18 851 25.13 21.3 70.3 51 10.8 51.5
18:10 1022 30.18 851 25.13 21.3 70.3 51 10.8 51.5
18:15 1022 30.18 851 25.13 21.3 70.3 49 10.3 50.6
18:20 1022 30.18 851 25.13 21.3 70.3 47 9.8 49.6
18:25 1022 30.18 851 25.13 21.3 70.3 48 9.9 49.8
18:30 1022 30.18 851 25.13 21.2 70.2 48 9.9 49.8
18:35 1022 30.18 851 25.13 21.3 70.3 48 9.9 49.9
18:40 1022 30.18 851 25.13 21.3 70.3 48 9.9 49.8
18:45 1022 30.18 851 25.13 21.3 70.3 49 10.2 50.3
18:50 1022 30.18 851 25.13 21.2 70.1 49 10.2 50.4
18:55 1022 30.18 851 25.13 21.2 70.1 50 10.5 50.9
19:00 1021 30.15 851 25.13 21.1 70 50 10.5 50.8
19:05 1021 30.15 851 25.13 21 69.9 50 10.5 50.9
19:10 1021 30.15 850 25.1 21 69.8 52 10.8 51.5
19:15 1021 30.15 850 25.1 20.8 69.5 52 10.8 51.5
19:20 1021 30.15 850 25.1 20.6 69.1 53 10.9 51.6
19:25 1021 30.15 850 25.1 20.4 68.7 54 10.8 51.5
19:30 1021 30.15 850 25.1 20.2 68.4 55 10.9 51.7
19:35 1021 30.15 850 25.1 20 68.1 56 11.1 52
19:40 1021 30.15 850 25.1 19.9 67.8 55 10.8 51.4
19:45 1021 30.15 850 25.1 19.8 67.6 55 10.6 51.1
19:50 1021 30.15 850 25.1 19.7 67.4 55 10.5 50.9
19:55 1021 30.15 850 25.1 19.6 67.3 55 10.3 50.5
20:00 1021 30.15 850 25.1 19.4 67 55 10.3 50.6
20:05 1021 30.15 850 25.1 19.3 66.8 55 10.2 50.4
20:10 1021 30.15 850 25.1 19.3 66.7 55 10.2 50.3
20:15 1021 30.15 851 25.13 19.2 66.6 56 10.3 50.6
20:20 1021 30.15 851 25.13 19.1 66.4 56 10.2 50.4
20:25 1021 30.15 851 25.13 19.1 66.3 55 10 49.9
20:30 1021 30.15 851 25.13 19.1 66.4 53 9.5 49.1
20:35 1021 30.15 851 25.13 19.1 66.5 53 9.4 49
20:40 1022 30.18 851 25.13 19.1 66.3 53 9.4 48.8
20:45 1021 30.15 851 25.13 19 66.2 51 8.8 47.8
20:50 1022 30.18 851 25.13 19 66.2 54 9.6 49.2
20:55 1022 30.18 851 25.13 18.7 65.7 54 9.4 48.9
21:00 1022 30.18 851 25.13 18.6 65.5 54 9.2 48.6
21:05 1022 30.18 851 25.13 18.5 65.3 54 9.3 48.7
21:10 1021 30.15 851 25.13 18.3 64.9 54 8.9 48
21:15 1021 30.15 851 25.13 18.2 64.7 53 8.6 47.4
21:20 1021 30.15 850 25.1 18 64.5 54 8.6 47.5
21:25 1021 30.15 850 25.1 17.9 64.1 54 8.6 47.4
21:30 1021 30.15 851 25.13 17.7 63.8 56 8.8 47.8
21:35 1021 30.15 851 25.13 17.5 63.5 56 8.7 47.6
21:40 1021 30.15 850 25.1 17.4 63.3 57 8.8 47.8
21:45 1021 30.15 850 25.1 17.3 63.2 56 8.6 47.5
21:50 1021 30.15 850 25.1 17.4 63.2 56 8.6 47.5
21:55 1021 30.15 850 25.1 17.2 62.9 57 8.6 47.5
22:00 1021 30.15 850 25.1 17.1 62.7 56 8.2 46.7
22:05 1021 30.15 850 25.1 17 62.7 56 8.4 47.1
22:10 1021 30.15 850 25.1 17 62.6 55 7.9 46.2
22:15 1021 30.15 850 25.1 17.1 62.9 54 7.8 46.1
22:20 1021 30.15 850 25.1 17.1 62.8 54 7.7 45.9
22:25 1021 30.15 850 25.1 17.1 62.7 53 7.6 45.7
22:30 1021 30.15 850 25.1 17 62.6 53 7.4 45.4
22:35 1021 30.15 850 25.1 17 62.6 52 7.3 45.1
22:40 1021 30.15 850 25.1 17.1 62.7 53 7.4 45.3
22:45 1021 30.15 850 25.1 17 62.6 53 7.5 45.5
22:50 1021 30.15 850 25.1 17 62.7 53 7.6 45.7
22:55 1021 30.15 850 25.1 17.1 62.7 53 7.6 45.7
23:00 1021 30.15 850 25.1 17 62.5 55 7.9 46.2
23:05 1021 30.15 850 25.1 16.9 62.4 56 8.1 46.5
23:10 1021 30.15 850 25.1 16.8 62.3 56 8 46.4
23:15 1021 30.15 850 25.1 16.8 62.2 54 7.5 45.5
23:20 1021 30.15 850 25.1 17.6 63.8 50 7.2 45
23:25 1021 30.15 850 25.1 17.9 64.3 47 6.6 43.8
23:30 1021 30.15 851 25.13 18.3 65 51 8 46.4
23:35 1021 30.15 850 25.1 18 64.5 53 8.5 47.4
23:40 1021 30.15 850 25.1 17.6 63.7 56 8.7 47.7
23:45 1021 30.15 850 25.1 17.3 63.2 56 8.7 47.6
23:50 1021 30.15 850 25.1 17.2 62.9 57 8.7 47.7
23:55 1021 30.15 850 25.1 17 62.6 57 8.6 47.5
24:00 1021 30.15 850 25.1 16.9 62.5 57 8.4 47.2